Time;durP1;ratioP1;P1;durP2;ratioP2;P2;SDS_P1;SDS_P2;PMS_P1;PMS_P2;Temp;Humidity;BMP_temperature;BMP_pressure;BME280_temperature;BME280_humidity;BME280_pressure;Samples;Min_cycle;Max_cycle;Signal;HPM_P1;HPM_P2
2021/12/17 00:00:19;;;;;;;18.70;11.33;;;4.60;95.10;;;4.33;67.20;95700.28;5077409;28;20463;-59
2021/12/17 00:05:45;;;;;;;15.53;9.60;;;4.60;95.30;;;4.29;67.34;95708.25;5082568;28;20453;-57
2021/12/17 00:08:13;;;;;;;17.17;10.20;;;4.60;95.20;;;4.27;67.40;95712.69;5081297;28;20438;-57
2021/12/17 00:10:40;;;;;;;14.20;9.30;;;4.50;95.20;;;4.26;67.51;95715.34;5080321;28;20495;-58
2021/12/17 00:13:07;;;;;;;16.30;9.97;;;4.50;95.20;;;4.23;67.61;95721.59;5081712;28;20443;-58
2021/12/17 00:15:35;;;;;;;13.20;9.50;;;4.50;95.20;;;4.20;67.53;95726.97;5077568;28;20454;-57
2021/12/17 00:18:11;;;;;;;15.27;9.63;;;4.50;95.20;;;4.20;67.37;95726.97;5077018;28;20454;-57
2021/12/17 00:40:05;;;;;;;13.13;9.20;;;4.40;95.20;;;4.21;67.91;95728.63;5076025;28;20943;-59
2021/12/17 00:48:37;;;;;;;10.30;8.30;;;4.40;95.20;;;4.21;67.50;95719.97;5075939;28;20433;-58
2021/12/17 00:53:52;;;;;;;11.10;8.37;;;4.50;95.20;;;4.25;67.63;95703.28;5079776;28;20549;-56
2021/12/17 00:56:20;;;;;;;9.97;8.47;;;4.50;95.20;;;4.25;67.33;95714.53;5080041;28;20474;-57
2021/12/17 00:58:47;;;;;;;9.27;7.13;;;4.50;95.20;;;4.26;67.45;95708.41;5083890;28;20473;-58
2021/12/17 01:01:15;;;;;;;11.47;8.13;;;4.50;95.20;;;4.29;67.34;95716.06;5082529;28;20489;-59
2021/12/17 01:03:42;;;;;;;12.97;8.50;;;4.50;95.20;;;4.31;67.07;95716.81;5083104;28;20454;-59
2021/12/17 01:06:11;;;;;;;11.23;8.30;;;4.60;95.20;;;4.32;66.99;95720.25;5078007;28;20463;-58
2021/12/17 01:08:38;;;;;;;10.80;7.80;;;4.60;95.00;;;4.33;66.78;95713.28;5077824;28;20454;-57
2021/12/17 01:11:06;;;;;;;13.70;7.23;;;4.60;94.90;;;4.31;66.58;95705.56;5084412;28;20496;-57
2021/12/17 01:13:33;;;;;;;12.07;7.10;;;4.60;94.70;;;4.31;66.65;95706.41;5075976;28;20851;-59
2021/12/17 01:16:00;;;;;;;11.23;8.00;;;4.60;94.70;;;4.34;66.39;95712.34;5078925;28;20471;-59
2021/12/17 01:18:40;;;;;;;9.23;7.27;;;4.60;94.60;;;4.33;66.40;95702.88;5082494;28;20458;-57
2021/12/17 01:21:24;;;;;;;8.70;7.80;;;4.60;94.40;;;4.33;66.48;95700.28;5080691;28;20519;-58
2021/12/17 01:24:13;;;;;;;10.40;7.20;;;4.60;94.40;;;4.33;66.03;95695.06;5077914;28;20449;-57
2021/12/17 01:43:15;;;;;;;7.77;6.50;;;4.50;93.50;;;4.27;65.01;95671.00;5079164;28;20432;-57
2021/12/17 01:45:43;;;;;;;6.90;5.57;;;4.50;93.40;;;4.27;64.93;95678.81;5081719;28;20470;-58
2021/12/17 01:48:17;;;;;;;10.43;6.27;;;4.50;93.40;;;4.28;64.96;95675.31;5076598;28;20445;-59
2021/12/17 01:56:32;;;;;;;9.07;5.77;;;4.50;93.20;;;4.33;64.89;95672.47;5037750;28;20635;-56
2021/12/17 02:01:44;;;;;;;5.80;5.20;;;4.60;93.20;;;4.36;64.83;95674.91;5078439;28;20853;-56
2021/12/17 02:04:11;;;;;;;5.90;5.00;;;4.60;93.60;;;4.39;64.57;95679.13;5079854;28;20966;-57
2021/12/17 02:06:39;;;;;;;6.33;5.27;;;4.60;93.10;;;4.41;64.41;95680.69;5078728;28;20478;-57
2021/12/17 02:09:27;;;;;;;5.93;5.40;;;4.60;92.90;;;4.44;64.28;95677.91;5077924;28;20982;-58
2021/12/17 02:21:02;;;;;;;8.83;5.60;;;4.70;92.70;;;4.48;63.97;95670.81;5077954;28;20430;-58
2021/12/17 02:29:17;;;;;;;8.87;6.37;;;4.80;92.70;;;4.55;63.85;95659.09;5083529;28;20458;-59
2021/12/17 02:31:45;;;;;;;7.63;5.93;;;4.80;92.70;;;4.58;63.65;95660.72;5084575;28;20489;-59
2021/12/17 02:34:28;;;;;;;7.03;5.30;;;4.80;92.70;;;4.60;64.03;95658.84;5088148;28;20445;-57
2021/12/17 02:36:59;;;;;;;9.47;6.03;;;4.80;92.70;;;4.62;64.01;95657.88;5089235;28;21027;-57
2021/12/17 02:39:52;;;;;;;7.90;5.53;;;4.80;92.70;;;4.65;63.84;95660.31;5082296;28;20466;-57
2021/12/17 02:42:40;;;;;;;8.00;6.00;;;4.90;92.70;;;4.69;64.24;95662.72;5078751;28;20474;-57
2021/12/17 02:48:01;;;;;;;6.50;5.00;;;4.90;92.70;;;4.74;64.03;95653.75;5078769;28;20513;-58
2021/12/17 02:50:28;;;;;;;9.23;6.03;;;4.90;92.70;;;4.75;64.26;95662.41;5080108;28;20457;-57
2021/12/17 02:52:58;;;;;;;7.17;5.10;;;4.90;92.70;;;4.77;64.27;95657.94;5081578;28;20986;-57
2021/12/17 02:55:25;;;;;;;9.10;6.00;;;5.00;92.80;;;4.77;64.10;95655.31;5083007;28;20451;-58
2021/12/17 02:57:52;;;;;;;8.53;6.20;;;5.00;92.80;;;4.78;64.02;95649.19;5082784;28;20437;-59
2021/12/17 03:00:20;;;;;;;6.13;5.03;;;5.00;92.80;;;4.82;64.35;95655.94;5085442;28;20462;-58
2021/12/17 03:02:47;;;;;;;9.77;5.67;;;5.00;92.80;;;4.83;64.41;95652.38;5079353;28;20466;-57
2021/12/17 03:05:15;;;;;;;12.03;5.53;;;5.00;93.00;;;4.84;64.49;95651.47;5084889;28;20986;-59
2021/12/17 03:07:45;;;;;;;10.37;5.00;;;5.00;93.00;;;4.85;64.54;95651.38;5080680;28;20478;-58
2021/12/17 03:10:15;;;;;;;9.00;6.20;;;5.10;93.10;;;4.87;64.68;95655.69;5074884;28;20940;-57
2021/12/17 03:12:45;;;;;;;6.67;5.00;;;5.10;93.20;;;4.88;64.97;95650.38;5081802;28;20495;-57
2021/12/17 03:15:21;;;;;;;12.33;6.10;;;5.10;93.40;;;4.90;65.02;95656.34;5079194;28;20439;-58
2021/12/17 03:23:30;;;;;;;12.37;7.10;;;5.20;93.90;;;4.92;65.63;95653.66;5077475;28;20551;-57
2021/12/17 03:26:00;;;;;;;9.67;7.00;;;5.20;94.00;;;4.86;66.09;95652.22;5080287;28;21026;-57
2021/12/17 03:28:27;;;;;;;14.07;8.40;;;5.10;94.30;;;4.85;66.70;95655.75;5077505;28;20835;-57
2021/12/17 03:30:54;;;;;;;11.83;7.43;;;5.10;94.70;;;4.84;66.82;95654.06;5086272;28;20875;-58
2021/12/17 03:33:22;;;;;;;10.33;7.30;;;5.10;94.80;;;4.84;67.01;95654.91;5080147;28;20489;-58
2021/12/17 03:35:49;;;;;;;7.90;6.83;;;5.00;94.90;;;4.85;67.04;95651.38;5085868;28;20467;-57
2021/12/17 03:38:16;;;;;;;8.60;6.33;;;5.10;95.00;;;4.85;66.83;95645.34;5081098;28;20512;-57
2021/12/17 03:40:45;;;;;;;8.80;6.53;;;5.10;95.00;;;4.86;67.27;95644.38;5081938;28;20474;-58
2021/12/17 03:43:21;;;;;;;9.17;6.57;;;5.10;95.10;;;4.87;67.49;95643.47;5082214;28;20450;-56
2021/12/17 03:45:48;;;;;;;10.77;6.27;;;5.10;95.20;;;4.89;67.43;95641.63;5080232;28;20474;-57
2021/12/17 03:48:16;;;;;;;11.33;7.57;;;5.10;95.30;;;4.90;67.46;95630.28;5082164;28;20465;-57
2021/12/17 03:50:43;;;;;;;9.30;7.50;;;5.10;95.30;;;4.90;67.22;95632.88;5079845;28;20467;-57
2021/12/17 03:53:10;;;;;;;6.97;5.60;;;5.10;95.20;;;4.91;67.25;95628.50;5075401;28;20493;-60
2021/12/17 03:55:38;;;;;;;9.47;5.83;;;5.10;95.40;;;4.88;67.79;95632.13;5078136;28;20455;-57
2021/12/17 03:58:05;;;;;;;6.27;5.53;;;5.10;95.50;;;4.89;67.46;95628.56;5079464;28;20592;-58
2021/12/17 04:00:34;;;;;;;7.90;6.50;;;5.10;95.50;;;4.90;67.91;95626.84;5080847;28;20459;-58
2021/12/17 04:03:02;;;;;;;12.00;7.27;;;5.10;95.60;;;4.89;67.81;95620.75;5080676;28;20994;-58
2021/12/17 04:05:29;;;;;;;8.53;6.90;;;5.10;95.60;;;4.83;68.08;95610.69;5080369;28;20446;-57
2021/12/17 04:07:56;;;;;;;9.90;6.40;;;5.10;95.60;;;4.84;68.15;95613.19;5082464;28;20458;-56
2021/12/17 04:10:25;;;;;;;7.70;6.50;;;5.10;95.80;;;4.83;68.12;95611.53;5079717;28;20449;-57
2021/12/17 04:12:57;;;;;;;8.80;6.10;;;5.00;95.90;;;4.83;68.27;95615.88;5081376;28;20568;-56
2021/12/17 04:15:33;;;;;;;7.03;6.20;;;5.00;96.10;;;4.83;68.41;95614.16;5084388;28;20503;-58
2021/12/17 04:18:05;;;;;;;14.70;6.60;;;5.00;96.10;;;4.83;68.38;95601.13;5075362;28;20759;-57
2021/12/17 04:20:32;;;;;;;6.60;6.03;;;5.10;96.30;;;4.80;68.63;95600.44;5081578;28;20444;-58
2021/12/17 04:22:59;;;;;;;7.97;7.10;;;5.00;96.30;;;4.79;68.88;95596.16;5078233;28;20462;-58
2021/12/17 04:25:28;;;;;;;7.40;5.80;;;5.00;96.30;;;4.76;68.83;95586.75;5086220;28;21047;-58
2021/12/17 04:27:55;;;;;;;8.27;5.83;;;5.00;96.40;;;4.77;68.77;95591.03;5080423;28;20974;-58
2021/12/17 04:30:23;;;;;;;7.37;6.30;;;5.00;96.40;;;4.76;68.79;95583.31;5084245;28;20985;-57
2021/12/17 04:32:51;;;;;;;9.80;6.47;;;5.00;96.40;;;4.76;68.85;95575.50;5080100;28;20493;-57
2021/12/17 04:35:19;;;;;;;6.50;5.90;;;5.00;96.50;;;4.73;69.33;95579.09;5079221;28;20470;-56
2021/12/17 04:37:47;;;;;;;8.60;6.10;;;4.90;96.60;;;4.70;69.11;95579.28;5082126;28;20482;-58
2021/12/17 04:40:15;;;;;;;6.63;5.93;;;4.90;96.60;;;4.70;69.33;95570.63;5077153;28;20443;-58
2021/12/17 04:42:53;;;;;;;8.00;6.67;;;4.90;96.70;;;4.67;69.27;95562.03;5075727;28;20479;-57
2021/12/17 04:45:21;;;;;;;6.97;5.10;;;4.90;96.70;;;4.64;69.11;95572.63;5076823;28;20446;-58
2021/12/17 04:58:53;;;;;;;13.00;8.10;;;4.90;97.10;;;4.74;69.54;95572.09;5082447;28;20805;-56
2021/12/17 05:01:21;;;;;;;9.17;7.07;;;5.00;97.00;;;4.75;69.31;95579.00;5082043;28;20558;-57
2021/12/17 05:03:48;;;;;;;11.70;7.83;;;5.00;97.00;;;4.77;69.51;95577.16;5079541;28;20455;-57
2021/12/17 05:06:18;;;;;;;12.13;7.00;;;5.00;97.00;;;4.78;69.61;95579.66;5078226;28;20474;-57
2021/12/17 05:08:46;;;;;;;7.80;6.50;;;5.00;97.00;;;4.80;68.90;95571.75;5077204;28;20826;-57
2021/12/17 05:11:25;;;;;;;9.40;6.83;;;5.00;97.00;;;4.82;69.32;95577.75;5075056;28;20499;-57
2021/12/17 05:19:32;;;;;;;6.90;5.10;;;5.10;97.30;;;4.89;69.48;95575.63;5081588;28;20426;-57
2021/12/17 05:22:05;;;;;;;9.57;5.20;;;5.10;97.00;;;4.90;69.76;95575.53;5078218;28;20544;-56
2021/12/17 05:24:32;;;;;;;11.40;5.77;;;5.10;97.00;;;4.91;69.72;95571.16;5080712;28;20442;-57
2021/12/17 05:27:00;;;;;;;5.83;4.30;;;5.10;97.10;;;4.92;69.79;95572.84;5084614;28;20486;-57
2021/12/17 05:29:27;;;;;;;5.73;5.23;;;5.10;97.30;;;4.93;69.67;95577.13;5077196;28;20451;-58
2021/12/17 05:31:55;;;;;;;6.43;4.97;;;5.10;97.20;;;4.92;69.80;95573.66;5078846;28;20470;-59
2021/12/17 05:34:22;;;;;;;4.90;4.50;;;5.10;97.10;;;4.93;69.20;95570.16;5072639;28;20455;-57
2021/12/17 05:36:49;;;;;;;6.07;4.50;;;5.10;97.00;;;4.92;69.42;95568.44;5080564;28;20541;-57
2021/12/17 05:39:18;;;;;;;4.77;4.30;;;5.10;96.90;;;4.92;69.29;95565.03;5078021;28;20507;-58
2021/12/17 05:41:46;;;;;;;5.23;4.73;;;5.10;96.90;;;4.92;69.32;95560.63;5078322;28;21090;-58
2021/12/17 05:44:14;;;;;;;8.27;6.53;;;5.10;97.00;;;4.92;69.29;95565.84;5077035;28;20450;-58
2021/12/17 05:46:49;;;;;;;8.33;6.70;;;5.20;97.10;;;4.93;69.49;95556.28;5078480;28;20491;-58
2021/12/17 05:49:17;;;;;;;6.77;6.10;;;5.20;97.00;;;4.93;69.51;95564.94;5079828;28;20454;-60
2021/12/17 05:51:45;;;;;;;30.30;18.60;;;5.20;97.10;;;4.93;69.28;95551.91;5082298;28;20470;-59
2021/12/17 05:54:12;;;;;;;16.40;10.53;;;5.20;97.10;;;4.93;69.42;95570.16;5074637;28;20458;-57
2021/12/17 05:56:41;;;;;;;10.13;6.63;;;5.10;97.00;;;4.94;69.56;95566.63;5077018;28;20486;-59
2021/12/17 05:59:08;;;;;;;16.57;6.10;;;5.10;97.00;;;4.94;69.60;95571.84;5079955;28;20493;-58
2021/12/17 06:01:36;;;;;;;8.33;6.17;;;5.20;97.10;;;4.95;69.27;95586.53;5083146;28;20838;-59
2021/12/17 06:04:04;;;;;;;7.40;6.17;;;5.20;97.10;;;4.93;69.53;95591.00;5085204;28;20488;-57
2021/12/17 06:06:32;;;;;;;17.10;11.53;;;5.10;97.00;;;4.90;69.67;95593.78;5083757;28;20475;-59
2021/12/17 06:09:03;;;;;;;64.03;42.40;;;5.10;97.00;;;4.88;69.61;95597.38;5084277;28;20999;-57
2021/12/17 06:11:30;;;;;;;37.47;24.20;;;5.10;97.10;;;4.89;69.58;95592.09;5083453;28;20479;-58
2021/12/17 06:13:59;;;;;;;23.03;15.20;;;5.10;97.00;;;4.90;69.47;95601.59;5085026;28;20839;-59
2021/12/17 06:16:27;;;;;;;13.80;10.00;;;5.10;97.10;;;4.91;69.68;95597.22;5077578;28;20462;-59
2021/12/17 06:18:54;;;;;;;10.83;8.40;;;5.10;97.10;;;4.93;69.82;95603.19;5076464;28;20839;-59
2021/12/17 06:21:21;;;;;;;7.63;6.67;;;5.20;97.20;;;4.94;69.69;95605.72;5082871;28;20463;-59
2021/12/17 06:23:49;;;;;;;11.90;8.00;;;5.10;97.20;;;4.95;69.57;95589.13;5079447;28;20451;-58
2021/12/17 06:26:16;;;;;;;9.73;7.13;;;5.20;97.20;;;4.96;69.58;95597.81;5084567;28;20485;-63
2021/12/17 06:28:43;;;;;;;7.53;6.27;;;5.20;97.10;;;4.96;69.75;95590.81;5079711;28;20454;-58
2021/12/17 06:31:12;;;;;;;6.63;6.00;;;5.20;97.20;;;4.98;69.67;95590.72;5079490;28;20470;-58
2021/12/17 06:33:39;;;;;;;17.20;9.00;;;5.20;97.20;;;5.00;69.82;95591.47;5083678;28;20482;-57
2021/12/17 06:36:07;;;;;;;13.60;7.77;;;5.20;97.20;;;5.00;69.49;95584.50;5078907;28;20467;-57
2021/12/17 06:38:34;;;;;;;8.97;6.20;;;5.20;97.20;;;5.05;69.66;95583.38;5077229;28;20457;-59
2021/12/17 06:41:01;;;;;;;13.13;5.50;;;5.20;97.30;;;5.07;69.84;95581.56;5075490;28;20471;-62
2021/12/17 06:43:35;;;;;;;15.13;6.70;;;5.30;97.20;;;5.12;71.25;95584.72;5076506;28;20538;-57
2021/12/17 06:46:15;;;;;;;10.30;6.67;;;5.30;98.20;;;5.24;73.11;95586.63;5078591;28;20854;-60
2021/12/17 06:48:46;;;;;;;7.17;6.00;;;5.40;99.90;;;5.39;70.96;95587.47;5077951;28;20450;-58
2021/12/17 06:59:54;;;;;;;3.50;3.30;;;5.60;97.00;;;5.33;69.13;95588.69;5117894;27;20537;-56
2021/12/17 07:11:00;;;;;;;3.50;3.20;;;5.40;97.10;;;5.13;69.61;95586.41;5095676;28;20521;-56
2021/12/17 07:21:57;;;;;;;5.10;4.60;;;5.20;97.50;;;4.93;70.51;95601.44;5114345;28;20475;-56
2021/12/17 07:32:49;;;;;;;4.67;4.27;;;5.10;98.10;;;4.81;71.16;95573.44;5101434;28;20473;-59
2021/12/17 07:40:52;;;;;;;5.37;4.97;;;5.10;99.90;;;5.08;74.08;95572.78;5110336;28;20521;-56
2021/12/17 07:43:29;;;;;;;10.37;9.27;;;5.20;99.90;;;5.18;72.94;95573.94;5105223;28;21129;-56
2021/12/17 07:45:57;;;;;;;18.90;15.13;;;5.30;99.90;;;5.23;72.51;95566.69;5105854;28;20886;-56
2021/12/17 07:48:26;;;;;;;16.13;11.90;;;5.40;99.90;;;5.26;71.96;95586.53;5109824;28;20864;-53
2021/12/17 07:50:53;;;;;;;5.47;5.00;;;5.40;99.40;;;5.27;72.14;95583.84;5110727;28;20469;-57
2021/12/17 07:53:21;;;;;;;7.10;5.13;;;5.40;99.50;;;5.25;71.44;95580.50;5110053;27;20950;-58
2021/12/17 07:55:48;;;;;;;22.60;6.60;;;5.50;99.00;;;5.25;71.65;95575.28;5108497;28;20518;-57
2021/12/17 07:58:16;;;;;;;5.20;4.77;;;5.50;98.90;;;5.25;71.75;95582.22;5110309;28;20476;-56
2021/12/17 08:00:43;;;;;;;7.50;5.40;;;5.40;99.10;;;5.24;71.66;95585.78;5111493;28;20529;-56
2021/12/17 08:03:14;;;;;;;9.13;6.40;;;5.40;99.20;;;5.25;71.89;95580.50;5112314;28;20510;-55
2021/12/17 08:05:43;;;;;;;6.70;6.03;;;5.40;99.10;;;5.25;71.53;95596.13;5113504;28;20441;-56
2021/12/17 08:08:11;;;;;;;6.20;5.60;;;5.50;98.90;;;5.23;71.82;95584.09;5112580;28;20455;-55
2021/12/17 08:10:38;;;;;;;6.70;6.20;;;5.40;99.20;;;5.23;71.60;95592.75;5102944;28;20514;-55
2021/12/17 08:13:07;;;;;;;6.67;5.97;;;5.40;99.10;;;5.21;71.53;95586.81;5097887;28;20450;-57
2021/12/17 08:15:42;;;;;;;7.60;5.40;;;5.40;99.10;;;5.20;71.34;95587.72;5093737;28;20453;-55
2021/12/17 08:26:29;;;;;;;9.20;7.50;;;5.40;99.20;;;5.17;71.65;95573.13;5096194;28;20478;-57
2021/12/17 08:29:23;;;;;;;7.27;6.57;;;5.40;99.10;;;5.17;71.40;95572.25;5096741;28;20450;-56
2021/12/17 08:31:51;;;;;;;7.60;6.80;;;5.40;99.00;;;5.17;71.60;95569.66;5093250;28;20469;-57
2021/12/17 08:34:18;;;;;;;6.50;5.90;;;5.40;99.10;;;5.16;71.63;95570.59;5098270;28;20449;-57
2021/12/17 08:36:47;;;;;;;6.80;6.10;;;5.40;98.90;;;5.16;71.40;95565.38;5095100;28;20477;-57
2021/12/17 08:39:14;;;;;;;5.90;5.23;;;5.40;99.00;;;5.15;72.00;95567.13;5096195;28;20493;-57
2021/12/17 08:41:41;;;;;;;6.47;5.87;;;5.40;99.20;;;5.15;71.86;95563.69;5090133;28;20489;-56
2021/12/17 08:44:09;;;;;;;7.93;5.90;;;5.40;99.10;;;5.17;71.84;95552.25;5091411;28;20450;-55
2021/12/17 08:46:37;;;;;;;6.47;5.87;;;5.30;99.20;;;5.20;72.07;95551.22;5094421;28;20464;-55
2021/12/17 08:49:05;;;;;;;9.50;5.20;;;5.40;99.40;;;5.21;71.58;95545.06;5097782;28;20453;-55
2021/12/17 08:51:32;;;;;;;5.63;5.07;;;5.40;98.90;;;5.21;71.44;95543.28;5095271;28;20544;-57
2021/12/17 08:54:01;;;;;;;7.37;5.87;;;5.40;98.80;;;5.21;71.86;95542.47;5096357;28;20459;-55
2021/12/17 08:56:31;;;;;;;6.57;5.70;;;5.40;98.80;;;5.22;71.84;95544.16;5097214;28;20473;-56
2021/12/17 08:59:02;;;;;;;6.83;6.17;;;5.40;99.20;;;5.25;71.57;95535.28;5098872;28;20486;-57
2021/12/17 09:01:29;;;;;;;7.60;6.47;;;5.40;99.10;;;5.24;71.90;95542.28;5098523;28;20488;-56
2021/12/17 09:03:57;;;;;;;10.33;7.37;;;5.40;99.20;;;5.25;71.92;95538.75;5097579;28;20471;-56
2021/12/17 09:06:26;;;;;;;9.07;6.63;;;5.40;99.20;;;5.28;72.10;95537.72;5095705;28;20465;-56
2021/12/17 09:08:55;;;;;;;13.93;9.20;;;5.50;99.40;;;5.31;71.50;95538.38;5092904;28;20954;-54
2021/12/17 09:11:24;;;;;;;12.77;10.00;;;5.50;99.10;;;5.32;71.76;95536.63;5093908;28;20545;-57
2021/12/17 09:13:51;;;;;;;10.40;8.60;;;5.50;99.20;;;5.33;72.03;95526.09;5090705;28;20671;-55
2021/12/17 09:16:20;;;;;;;8.13;7.33;;;5.50;99.30;;;5.37;72.24;95516.31;5095434;28;20520;-56
2021/12/17 09:18:48;;;;;;;6.80;6.10;;;5.60;99.50;;;5.43;71.99;95520.31;5096060;28;20499;-57
2021/12/17 09:21:15;;;;;;;7.27;4.77;;;5.60;99.30;;;5.44;71.29;95516.75;5096300;28;20550;-56
2021/12/17 09:23:43;;;;;;;6.10;5.23;;;5.60;99.10;;;5.45;71.91;95519.28;5096341;28;20533;-56
2021/12/17 09:26:11;;;;;;;4.63;4.23;;;5.60;99.20;;;5.48;71.68;95523.47;5098137;28;20465;-55
2021/12/17 09:28:40;;;;;;;6.80;6.17;;;5.70;99.10;;;5.50;72.01;95516.41;5092652;28;20857;-55
2021/12/17 09:31:11;;;;;;;5.33;4.83;;;5.70;99.30;;;5.53;71.66;95514.47;5097357;28;20465;-56
2021/12/17 09:33:38;;;;;;;5.40;4.90;;;5.70;99.30;;;5.57;72.07;95512.50;5098506;28;20442;-55
2021/12/17 09:36:06;;;;;;;6.10;5.57;;;5.80;99.40;;;5.61;72.15;95507.91;5099204;28;20766;-54
2021/12/17 09:38:33;;;;;;;4.37;4.07;;;5.80;99.40;;;5.62;71.69;95494.78;5095827;28;20490;-56
2021/12/17 09:41:01;;;;;;;4.97;4.57;;;5.80;99.70;;;5.64;71.74;95492.94;5096602;28;20469;-56
2021/12/17 09:43:29;;;;;;;5.07;4.60;;;5.80;99.30;;;5.68;71.68;95497.00;5096313;28;20450;-56
2021/12/17 09:45:58;;;;;;;4.13;3.83;;;5.90;99.10;;;5.66;70.75;95485.84;5097445;28;21058;-56
2021/12/17 09:48:26;;;;;;;4.27;3.90;;;5.90;98.90;;;5.66;71.40;95475.41;5090032;28;20982;-56
2021/12/17 09:50:54;;;;;;;4.63;4.23;;;5.90;99.00;;;5.68;71.23;95473.53;5092212;28;20506;-56
2021/12/17 09:53:22;;;;;;;8.23;5.43;;;5.90;99.20;;;5.71;71.94;95468.09;5094820;28;20457;-57
2021/12/17 09:55:50;;;;;;;5.13;4.73;;;5.90;99.70;;;5.78;71.85;95472.94;5090035;28;20473;-55
2021/12/17 09:58:17;;;;;;;4.90;4.50;;;5.90;99.30;;;5.79;71.31;95465.03;5094594;28;20469;-56
2021/12/17 10:00:45;;;;;;;6.90;4.87;;;6.00;99.20;;;5.78;71.61;95470.34;5094846;28;20476;-57
2021/12/17 10:03:14;;;;;;;7.13;6.43;;;6.00;99.20;;;5.75;71.44;95464.38;5097511;28;20537;-55
2021/12/17 10:05:41;;;;;;;6.83;5.87;;;6.00;99.00;;;5.76;71.76;95449.56;5095833;28;20461;-56
2021/12/17 10:08:12;;;;;;;8.13;7.33;;;6.00;99.20;;;5.79;72.30;95451.16;5091094;28;20775;-55
2021/12/17 10:10:44;;;;;;;6.70;6.00;;;6.00;99.30;;;5.81;71.65;95446.66;5093146;28;20474;-56
2021/12/17 10:13:14;;;;;;;6.57;5.90;;;6.00;99.30;;;5.83;71.85;95440.41;5091892;28;20556;-54
2021/12/17 10:15:43;;;;;;;9.00;7.40;;;6.00;99.20;;;5.84;71.03;95436.03;5095210;28;20834;-55
2021/12/17 10:18:10;;;;;;;8.23;7.07;;;6.00;99.30;;;5.82;71.59;95422.25;5097375;28;20833;-54
2021/12/17 10:20:43;;;;;;;7.00;6.40;;;6.00;99.00;;;5.83;71.14;95419.53;5096543;28;20445;-56
2021/12/17 10:23:12;;;;;;;4.80;4.40;;;6.00;98.90;;;5.83;71.24;95427.38;5098123;28;20450;-55
2021/12/17 10:25:42;;;;;;;6.03;5.50;;;6.00;98.80;;;5.80;71.18;95409.28;5097470;28;20478;-61
2021/12/17 10:28:10;;;;;;;6.37;5.27;;;6.00;98.80;;;5.80;71.41;95411.06;5092510;28;20475;-56
2021/12/17 10:30:39;;;;;;;5.03;4.40;;;6.00;98.80;;;5.80;71.25;95401.44;5095761;28;20449;-55
2021/12/17 10:33:07;;;;;;;4.10;3.80;;;6.00;99.10;;;5.83;71.27;95397.81;5094250;28;20446;-57
2021/12/17 10:35:35;;;;;;;6.20;3.83;;;6.00;99.10;;;5.87;71.71;95394.91;5097188;28;20945;-57
2021/12/17 10:38:05;;;;;;;5.77;5.23;;;6.00;99.10;;;5.92;71.59;95384.19;5097040;28;20449;-56
2021/12/17 10:40:35;;;;;;;4.73;4.33;;;6.10;99.00;;;5.97;71.16;95382.13;5089968;28;20480;-56
2021/12/17 10:43:09;;;;;;;4.23;3.80;;;6.10;98.80;;;5.98;71.12;95375.97;5089260;28;20446;-55
2021/12/17 10:45:41;;;;;;;4.53;4.23;;;6.20;98.60;;;5.99;70.41;95376.81;5094963;28;20524;-57
2021/12/17 10:51:28;;;;;;;4.63;4.30;;;6.20;98.60;;;5.99;70.50;95377.63;5090082;28;20469;-57
2021/12/17 10:53:58;;;;;;;5.33;4.83;;;6.20;98.50;;;5.97;70.07;95389.97;5094153;28;20431;-56
2021/12/17 10:56:26;;;;;;;7.37;4.47;;;6.20;98.30;;;5.94;70.65;95387.53;5096256;28;20465;-55
2021/12/17 10:59:01;;;;;;;5.03;4.53;;;6.20;98.40;;;5.91;70.81;95392.94;5097244;28;20891;-56
2021/12/17 11:01:42;;;;;;;3.80;3.53;;;6.10;98.40;;;5.87;70.53;95392.31;5096432;28;20469;-56
2021/12/17 11:04:17;;;;;;;4.77;4.33;;;6.10;98.50;;;5.82;70.49;95393.53;5093368;28;20446;-56
2021/12/17 11:06:54;;;;;;;4.63;4.23;;;6.00;98.50;;;5.77;71.18;95372.09;5096389;28;20461;-57
2021/12/17 11:09:50;;;;;;;4.83;4.53;;;6.00;98.90;;;5.80;71.42;95374.53;5093915;28;20457;-55
2021/12/17 11:12:30;;;;;;;5.03;4.57;;;6.00;99.10;;;5.84;71.76;95379.44;5088495;28;20519;-56
2021/12/17 11:15:12;;;;;;;4.60;3.83;;;6.00;99.30;;;5.88;72.16;95369.63;5090691;28;20438;-56
2021/12/17 11:17:39;;;;;;;5.80;5.20;;;6.10;99.20;;;5.94;71.58;95369.25;5088284;28;20466;-56
2021/12/17 11:20:09;;;;;;;5.93;4.80;;;6.10;99.30;;;5.96;71.99;95356.09;5088701;28;20489;-56
2021/12/17 11:22:37;;;;;;;3.13;3.03;;;6.10;99.40;;;5.95;71.73;95350.03;5093542;28;20467;-56
2021/12/17 11:25:07;;;;;;;3.07;2.87;;;6.10;99.20;;;5.97;71.48;95356.03;5087197;28;20461;-57
2021/12/17 11:27:34;;;;;;;2.47;2.27;;;6.20;99.30;;;5.98;71.98;95349.00;5090574;28;20473;-54
2021/12/17 11:30:02;;;;;;;3.10;2.90;;;6.20;99.30;;;5.97;71.64;95342.97;5093060;28;20446;-56
2021/12/17 11:32:30;;;;;;;3.03;2.83;;;6.20;99.10;;;5.96;71.10;95341.25;5096214;28;20470;-57
2021/12/17 11:34:58;;;;;;;3.27;2.97;;;6.10;99.00;;;5.96;71.28;95345.66;5094768;28;20514;-56
2021/12/17 11:37:25;;;;;;;3.33;2.80;;;6.10;98.90;;;5.96;70.96;95343.03;5095336;28;20500;-56
2021/12/17 11:39:55;;;;;;;3.00;2.70;;;6.10;98.70;;;5.93;71.04;95333.63;5095443;28;20488;-57
2021/12/17 11:42:43;;;;;;;3.00;2.90;;;6.10;98.60;;;5.91;71.59;95330.28;5094883;28;20477;-57
2021/12/17 11:45:25;;;;;;;3.40;3.20;;;6.10;98.90;;;5.88;71.04;95328.69;5097588;28;20452;-57
2021/12/17 11:47:54;;;;;;;2.90;2.70;;;6.10;98.80;;;5.87;71.44;95320.97;5098644;28;21233;-57
2021/12/17 11:50:21;;;;;;;2.83;2.63;;;6.10;98.80;;;5.86;71.49;95329.75;5095493;28;20498;-57
2021/12/17 11:52:49;;;;;;;3.40;3.20;;;6.00;99.00;;;5.84;71.48;95323.78;5094249;28;20506;-56
2021/12/17 11:55:34;;;;;;;3.10;3.00;;;6.00;99.00;;;5.84;71.42;95313.34;5095886;28;20989;-58
2021/12/17 11:58:08;;;;;;;3.37;3.07;;;6.00;99.10;;;5.84;71.76;95313.34;5102864;28;20468;-56
2021/12/17 12:00:50;;;;;;;3.83;3.43;;;6.00;99.10;;;5.85;71.54;95312.41;5096547;28;20478;-57
2021/12/17 12:03:19;;;;;;;2.10;2.00;;;6.00;99.00;;;5.84;71.08;95319.41;5098402;28;21002;-56
2021/12/17 12:05:48;;;;;;;2.10;2.00;;;6.00;98.70;;;5.78;70.99;95301.53;5097790;28;20476;-57
2021/12/17 12:08:33;;;;;;;2.80;2.60;;;6.00;98.50;;;5.74;70.92;95294.84;5099055;28;20831;-57
2021/12/17 12:11:19;;;;;;;2.77;2.53;;;5.90;98.50;;;5.70;70.79;95288.13;5090976;28;20599;-57
2021/12/17 12:13:49;;;;;;;2.97;2.87;;;5.90;98.50;;;5.65;70.56;95285.81;5101100;28;20438;-57
2021/12/17 12:16:18;;;;;;;3.23;3.03;;;5.90;98.40;;;5.62;70.95;95293.84;5095752;28;20545;-56
2021/12/17 12:18:49;;;;;;;2.63;2.43;;;5.80;98.40;;;5.59;70.38;95278.38;5097791;28;20458;-56
2021/12/17 12:21:17;;;;;;;3.10;2.90;;;5.80;98.40;;;5.54;70.50;95273.47;5091611;28;20466;-57
2021/12/17 12:23:56;;;;;;;3.57;3.37;;;5.80;98.10;;;5.52;70.53;95277.13;5092963;28;20493;-56
2021/12/17 12:26:43;;;;;;;3.90;3.60;;;5.70;98.00;;;5.49;70.08;95266.91;5098660;28;20629;-57
2021/12/17 12:29:22;;;;;;;3.27;3.07;;;5.70;98.10;;;5.48;70.20;95250.38;5090974;28;20446;-56
2021/12/17 12:32:12;;;;;;;3.03;2.83;;;5.70;98.00;;;5.47;69.93;95248.72;5096194;28;20696;-56
2021/12/17 12:34:42;;;;;;;3.00;2.80;;;5.70;97.80;;;5.45;69.93;95234.94;5091350;28;20438;-56
2021/12/17 12:37:27;;;;;;;3.67;3.13;;;5.70;97.80;;;5.43;69.36;95233.38;5101716;28;20462;-58
2021/12/17 12:40:18;;;;;;;4.10;2.30;;;5.70;97.40;;;5.37;69.19;95232.00;5098016;28;20666;-57
2021/12/17 12:42:53;;;;;;;3.27;2.37;;;5.60;97.30;;;5.32;68.82;95239.28;5095342;28;21070;-57
2021/12/17 12:45:23;;;;;;;2.47;2.10;;;5.50;96.90;;;5.26;68.71;95234.47;5101684;28;20533;-57
2021/12/17 12:47:58;;;;;;;2.67;2.47;;;5.50;96.70;;;5.20;68.57;95238.28;5096435;28;20955;-57
2021/12/17 12:50:31;;;;;;;2.47;2.27;;;5.50;96.90;;;5.16;68.48;95236.84;5096844;28;20815;-56
2021/12/17 12:53:02;;;;;;;1.90;1.80;;;5.40;96.60;;;5.16;68.70;95247.25;5102079;28;20456;-57
2021/12/17 12:55:31;;;;;;;13.30;2.30;;;5.40;96.90;;;5.14;68.71;95229.09;5098244;28;20487;-54
2021/12/17 12:58:08;;;;;;;3.10;2.57;;;5.40;96.70;;;5.15;68.43;95214.28;5099935;28;20466;-57
2021/12/17 13:00:42;;;;;;;2.83;1.97;;;5.40;96.70;;;5.15;68.38;95199.47;5098961;28;20932;-53
2021/12/17 13:03:12;;;;;;;1.67;1.57;;;5.40;96.70;;;5.14;68.32;95208.25;5094106;28;20467;-57
2021/12/17 13:05:41;;;;;;;1.70;1.60;;;5.40;96.60;;;5.16;68.55;95236.84;5094837;28;20438;-56
2021/12/17 13:08:11;;;;;;;2.10;1.90;;;5.40;96.60;;;5.15;68.16;95248.19;5098616;28;20449;-56
2021/12/17 13:10:40;;;;;;;2.10;2.00;;;5.40;96.40;;;5.18;67.96;95250.59;5100604;28;20962;-56